Time;durP1;ratioP1;P1;durP2;ratioP2;P2;SDS_P1;SDS_P2;PMS_P1;PMS_P2;Temp;Humidity;BMP_temperature;BMP_pressure;BME280_temperature;BME280_humidity;BME280_pressure;Samples;Min_cycle;Max_cycle;Signal;HPM_P1;HPM_P2
2022/01/16 00:06:25;;;;;;;27.83;14.02;;;4.50;99.90;;;;;;5119462;27;20051;-75
2022/01/16 00:08:51;;;;;;;29.67;13.82;;;4.20;99.90;;;;;;5101622;27;20110;-75
2022/01/16 00:11:17;;;;;;;29.88;15.27;;;4.80;99.90;;;;;;5118614;27;20039;-75
2022/01/16 00:13:43;;;;;;;32.42;14.63;;;4.10;99.90;;;;;;5080817;28;20056;-74
2022/01/16 00:16:13;;;;;;;32.10;16.05;;;4.00;99.90;;;;;;5098100;28;20391;-74
2022/01/16 00:18:49;;;;;;;33.40;15.50;;;4.50;99.90;;;;;;5098094;28;20079;-74
2022/01/16 00:21:37;;;;;;;35.15;16.23;;;3.90;99.90;;;;;;5099466;28;20108;-73
2022/01/16 00:24:03;;;;;;;35.35;16.02;;;4.00;99.90;;;;;;5116206;28;20047;-74
2022/01/16 00:26:29;;;;;;;34.25;16.10;;;3.90;99.90;;;;;;5114705;28;20047;-74
2022/01/16 00:28:55;;;;;;;34.60;15.82;;;3.80;99.90;;;;;;5116082;28;20393;-73
2022/01/16 00:31:23;;;;;;;34.58;15.70;;;4.30;99.90;;;;;;5097695;28;20047;-73
2022/01/16 00:33:51;;;;;;;34.47;15.95;;;4.60;99.90;;;;;;5097695;28;20396;-73
2022/01/16 00:36:19;;;;;;;32.08;15.95;;;3.90;99.90;;;;;;5116253;28;20508;-73
2022/01/16 00:38:49;;;;;;;37.08;16.58;;;3.70;99.90;;;;;;5114590;28;20103;-73
2022/01/16 00:41:20;;;;;;;32.45;16.17;;;3.80;99.90;;;;;;5114654;28;20480;-73
2022/01/16 00:43:49;;;;;;;36.13;16.60;;;3.80;99.90;;;;;;5098506;28;20054;-73
2022/01/16 00:46:16;;;;;;;38.00;17.13;;;3.50;99.90;;;;;;5113836;28;20043;-73
2022/01/16 00:48:42;;;;;;;32.78;17.83;;;2.60;99.90;;;;;;5115421;28;20443;-73
2022/01/16 00:51:08;;;;;;;42.05;18.45;;;3.40;99.90;;;;;;5114375;28;20062;-73
2022/01/16 00:53:34;;;;;;;39.50;17.83;;;3.50;99.90;;;;;;5115273;28;20047;-73
2022/01/16 00:56:00;;;;;;;38.90;17.33;;;3.30;99.90;;;;;;5096968;28;20122;-75
2022/01/16 00:58:26;;;;;;;43.38;18.23;;;3.40;99.90;;;;;;5080451;28;20055;-75
2022/01/16 01:00:51;;;;;;;42.97;19.23;;;3.20;99.90;;;;;;5114217;28;20075;-76
2022/01/16 01:03:17;;;;;;;41.30;17.98;;;3.30;99.90;;;;;;5096710;28;20556;-76
2022/01/16 01:05:43;;;;;;;36.85;15.68;;;3.10;99.90;;;;;;5113573;28;20373;-76
2022/01/16 01:08:09;;;;;;;39.88;17.60;;;3.20;99.90;;;;;;5097361;28;20059;-76
2022/01/16 01:10:39;;;;;;;37.72;16.23;;;3.30;99.90;;;;;;5096857;28;20083;-76
2022/01/16 01:13:12;;;;;;;36.05;15.98;;;3.50;99.90;;;;;;5117402;27;20062;-75
2022/01/16 01:15:47;;;;;;;;;;;3.50;99.90;;;;;;5096834;28;20064;-76
2022/01/16 01:18:15;;;;;;;36.00;16.77;;;3.00;99.90;;;;;;5081595;28;20052;-76
2022/01/16 01:20:42;;;;;;;35.17;16.73;;;3.20;99.90;;;;;;5113845;28;20059;-76
2022/01/16 01:23:09;;;;;;;36.70;17.55;;;3.40;99.90;;;;;;5113500;28;20043;-76
2022/01/16 01:25:35;;;;;;;41.60;18.10;;;3.60;99.90;;;;;;5113657;28;20535;-76
2022/01/16 01:28:01;;;;;;;41.80;17.88;;;3.20;99.90;;;;;;5096757;28;20055;-76
2022/01/16 01:30:27;;;;;;;46.35;18.15;;;4.30;99.90;;;;;;5113597;28;20360;-75
2022/01/16 01:32:54;;;;;;;38.40;17.75;;;3.00;99.90;;;;;;5115443;28;20044;-75
2022/01/16 01:35:20;;;;;;;39.17;17.33;;;3.20;99.90;;;;;;5115073;28;20066;-76
2022/01/16 01:37:46;;;;;;;44.35;18.67;;;3.60;99.90;;;;;;5113157;28;20488;-76
2022/01/16 01:40:16;;;;;;;41.38;18.17;;;3.50;99.90;;;;;;5079757;28;20369;-76
2022/01/16 01:42:45;;;;;;;40.35;18.58;;;3.00;99.90;;;;;;5096221;28;20039;-75
2022/01/16 01:51:03;;;;;;;41.78;18.80;;;2.90;99.90;;;;;;5113548;28;20048;-75
2022/01/16 01:51:05;;;;;;;41.42;18.00;;;3.40;99.90;;;;;;5100235;28;20043;-75
2022/01/16 01:53:31;;;;;;;39.17;17.17;;;2.90;99.90;;;;;;5081564;28;20124;-75
2022/01/16 01:55:57;;;;;;;41.78;18.08;;;3.10;99.90;;;;;;5097080;28;20084;-75
2022/01/16 01:58:23;;;;;;;42.58;18.27;;;2.90;99.90;;;;;;5112508;28;20373;-75
2022/01/16 02:00:49;;;;;;;40.03;18.85;;;3.10;99.90;;;;;;5096579;28;20080;-76
2022/01/16 02:05:46;;;;;;;41.45;17.48;;;3.30;99.90;;;;;;5113511;28;20063;-75
2022/01/16 02:08:13;;;;;;;38.30;17.33;;;3.30;99.90;;;;;;5113419;28;20083;-76
2022/01/16 02:10:40;;;;;;;37.70;16.67;;;3.30;99.90;;;;;;5079461;28;20047;-76
2022/01/16 02:13:09;;;;;;;35.53;17.83;;;2.90;99.90;;;;;;5113107;28;20062;-76
2022/01/16 02:31:41;;;;;;;37.78;17.77;;;3.20;99.90;;;;;;5113191;28;20087;-76
2022/01/16 02:36:56;;;;;;;37.80;16.88;;;2.80;99.90;;;;;;5098604;28;20051;-76
2022/01/16 02:39:26;;;;;;;37.42;16.92;;;3.40;99.90;;;;;;5079719;28;20044;-76
2022/01/16 02:41:53;;;;;;;39.05;17.50;;;3.80;99.90;;;;;;5112737;28;20048;-76
2022/01/16 02:46:46;;;;;;;38.05;18.27;;;2.70;99.90;;;;;;5114558;28;20361;-76
2022/01/16 02:49:22;;;;;;;40.55;19.15;;;3.20;99.90;;;;;;5112502;28;20050;-76
2022/01/16 02:51:50;;;;;;;40.22;17.42;;;2.80;99.90;;;;;;5113488;28;20395;-76
2022/01/16 02:54:16;;;;;;;42.10;19.70;;;2.70;99.90;;;;;;5114471;28;20443;-76
2022/01/16 02:56:43;;;;;;;42.95;19.80;;;3.00;99.90;;;;;;5095960;28;20078;-77
2022/01/16 02:59:13;;;;;;;44.28;19.45;;;3.00;99.90;;;;;;5112272;28;20055;-76
2022/01/16 03:01:39;;;;;;;43.65;19.65;;;2.90;99.90;;;;;;5113505;28;20394;-76
2022/01/16 03:04:06;;;;;;;41.55;18.40;;;3.20;99.90;;;;;;5095692;28;20050;-76
2022/01/16 03:06:32;;;;;;;46.78;20.70;;;3.30;99.90;;;;;;5112523;28;20101;-74
2022/01/16 03:08:58;;;;;;;47.97;20.40;;;2.90;99.90;;;;;;5113564;28;20108;-74
2022/01/16 03:13:53;;;;;;;45.80;20.85;;;3.20;99.90;;;;;;5098995;28;20553;-74
2022/01/16 03:16:22;;;;;;;47.88;19.77;;;3.50;99.90;;;;;;5099200;28;20052;-74
2022/01/16 03:21:53;;;;;;;48.80;20.95;;;3.00;99.90;;;;;;5088368;28;20052;-73
2022/01/16 03:24:29;;;;;;;45.28;21.27;;;3.30;99.90;;;;;;5102253;28;20051;-73
2022/01/16 03:27:04;;;;;;;50.47;21.48;;;3.20;99.90;;;;;;5117654;28;20384;-74
2022/01/16 03:29:30;;;;;;;42.92;19.23;;;3.00;99.90;;;;;;5099937;28;20047;-74
2022/01/16 03:31:58;;;;;;;46.95;21.48;;;3.70;99.90;;;;;;5116722;28;20051;-74
2022/01/16 03:34:24;;;;;;;48.30;21.58;;;3.30;99.90;;;;;;5116987;28;20051;-74
2022/01/16 03:36:50;;;;;;;50.67;21.85;;;2.90;99.90;;;;;;5098900;28;20092;-74
2022/01/16 03:39:16;;;;;;;53.08;20.30;;;4.00;99.90;;;;;;5115794;28;20418;-74
2022/01/16 03:41:42;;;;;;;52.67;20.85;;;3.70;99.90;;;;;;5099492;28;20051;-74
2022/01/16 03:44:08;;;;;;;47.85;20.88;;;2.80;99.90;;;;;;5098717;28;20112;-74
2022/01/16 03:46:37;;;;;;;48.33;20.90;;;3.10;99.90;;;;;;5098964;28;20141;-74
2022/01/16 03:49:12;;;;;;;52.67;23.00;;;3.10;99.90;;;;;;5098663;28;20059;-74
2022/01/16 03:51:40;;;;;;;50.22;22.15;;;3.00;99.90;;;;;;5116469;28;20110;-74
2022/01/16 03:54:08;;;;;;;51.78;23.10;;;3.30;99.90;;;;;;5098817;28;20051;-74
2022/01/16 03:56:34;;;;;;;56.60;21.73;;;3.70;99.90;;;;;;5115422;28;20039;-74
2022/01/16 03:59:00;;;;;;;58.67;21.85;;;3.70;99.90;;;;;;5098482;28;20047;-74
2022/01/16 04:01:26;;;;;;;53.40;21.95;;;3.20;99.90;;;;;;5115192;28;20395;-74
2022/01/16 04:03:54;;;;;;;53.75;23.15;;;3.30;99.90;;;;;;5098257;28;20399;-74
2022/01/16 04:06:20;;;;;;;57.28;23.13;;;3.20;99.90;;;;;;5081379;28;20044;-74
2022/01/16 04:08:51;;;;;;;55.42;22.15;;;3.30;99.90;;;;;;5114715;28;20467;-74
2022/01/16 04:11:17;;;;;;;55.92;23.23;;;3.90;99.90;;;;;;5116122;28;20435;-74
2022/01/16 04:13:55;;;;;;;56.75;22.58;;;3.20;99.90;;;;;;5114914;28;20414;-74
2022/01/16 04:16:22;;;;;;;53.55;23.30;;;3.50;99.90;;;;;;5099012;28;20059;-74
2022/01/16 04:18:51;;;;;;;56.78;23.65;;;3.20;99.90;;;;;;5098924;28;20096;-75
2022/01/16 04:21:22;;;;;;;57.83;23.73;;;3.80;99.90;;;;;;5097171;28;20509;-74
2022/01/16 04:23:49;;;;;;;60.58;24.42;;;3.20;99.90;;;;;;5114678;28;20097;-74
2022/01/16 04:26:17;;;;;;;55.00;22.48;;;3.40;99.90;;;;;;5081795;28;20096;-75
2022/01/16 04:28:43;;;;;;;59.38;23.33;;;3.40;99.90;;;;;;5081807;28;20070;-74
2022/01/16 04:31:09;;;;;;;56.60;24.27;;;3.20;99.90;;;;;;5115787;28;20047;-74
2022/01/16 04:33:35;;;;;;;58.40;23.70;;;3.20;99.90;;;;;;5114608;28;20044;-74
2022/01/16 04:36:02;;;;;;;62.25;24.10;;;3.30;99.90;;;;;;5080830;28;20131;-74
2022/01/16 04:38:27;;;;;;;59.40;24.05;;;3.00;99.90;;;;;;5114658;28;20066;-74
2022/01/16 04:43:47;;;;;;;59.50;24.08;;;3.80;99.90;;;;;;5114271;28;20043;-74
2022/01/16 04:46:17;;;;;;;62.83;24.30;;;3.90;99.90;;;;;;5098376;28;20052;-74
2022/01/16 04:48:44;;;;;;;57.40;24.48;;;3.30;99.90;;;;;;5082196;28;20138;-74
2022/01/16 04:51:10;;;;;;;63.28;23.10;;;3.10;99.90;;;;;;5114262;28;20051;-74
2022/01/16 04:53:37;;;;;;;57.38;23.73;;;3.30;99.90;;;;;;5115163;28;20097;-74
2022/01/16 04:56:04;;;;;;;62.95;23.60;;;4.00;99.90;;;;;;5114191;28;20055;-75
2022/01/16 04:58:29;;;;;;;64.28;24.48;;;3.10;99.90;;;;;;5096943;28;20093;-74
2022/01/16 05:00:55;;;;;;;53.28;22.75;;;4.00;99.90;;;;;;5115217;28;20040;-74
2022/01/16 05:03:23;;;;;;;57.75;23.63;;;3.40;99.90;;;;;;5096894;28;20047;-74
2022/01/16 05:05:49;;;;;;;61.63;24.08;;;3.60;99.90;;;;;;5097151;28;20479;-74
2022/01/16 05:08:14;;;;;;;65.07;23.70;;;3.30;99.90;;;;;;5114092;28;20046;-74
2022/01/16 05:10:40;;;;;;;59.33;24.88;;;3.80;99.90;;;;;;5097886;28;20055;-74
2022/01/16 05:18:32;;;;;;;68.72;25.60;;;3.80;99.90;;;;;;5114697;28;20134;-74
2022/01/16 05:20:58;;;;;;;61.13;22.70;;;4.10;99.90;;;;;;5097180;28;20083;-74
2022/01/16 05:23:23;;;;;;;68.95;25.02;;;3.40;99.90;;;;;;5113465;28;20050;-74
2022/01/16 05:25:49;;;;;;;64.55;24.73;;;3.50;99.90;;;;;;5113314;28;20088;-75
2022/01/16 05:28:15;;;;;;;63.33;23.38;;;3.90;99.90;;;;;;5096790;28;20180;-74
2022/01/16 05:30:41;;;;;;;69.07;23.98;;;4.30;99.90;;;;;;5079562;28;20047;-74
2022/01/16 05:33:08;;;;;;;61.28;25.23;;;3.50;99.90;;;;;;5080008;28;20047;-74
2022/01/16 05:35:33;;;;;;;64.20;23.70;;;3.40;99.90;;;;;;5096626;28;20047;-74
2022/01/16 05:37:59;;;;;;;65.93;24.73;;;3.70;99.90;;;;;;5113439;28;20047;-74
2022/01/16 05:40:25;;;;;;;60.42;23.98;;;3.50;99.90;;;;;;5096381;28;20040;-74
2022/01/16 05:42:51;;;;;;;62.65;22.95;;;3.40;99.90;;;;;;5112993;28;20486;-75
2022/01/16 05:45:16;;;;;;;65.35;25.10;;;3.50;99.90;;;;;;5096799;28;20046;-74
2022/01/16 05:47:42;;;;;;;55.92;22.35;;;3.40;99.90;;;;;;5079576;28;20090;-74
2022/01/16 05:50:08;;;;;;;64.55;23.45;;;3.60;99.90;;;;;;5079041;28;20039;-74
2022/01/16 05:52:34;;;;;;;70.18;24.15;;;3.50;99.90;;;;;;5113884;28;20054;-74
2022/01/16 05:55:00;;;;;;;53.88;22.40;;;4.30;99.90;;;;;;5080380;28;20076;-74
2022/01/16 05:57:26;;;;;;;65.00;23.35;;;4.40;99.90;;;;;;5096956;28;20439;-75
2022/01/16 05:59:51;;;;;;;63.58;23.08;;;3.70;99.90;;;;;;5096258;28;20048;-74
2022/01/16 06:02:17;;;;;;;60.13;22.75;;;3.80;99.90;;;;;;5114080;28;20472;-74
2022/01/16 06:04:43;;;;;;;63.55;24.50;;;3.60;99.90;;;;;;5079572;28;20075;-74
2022/01/16 06:07:09;;;;;;;65.25;23.20;;;3.80;99.90;;;;;;5113140;28;20134;-74
2022/01/16 06:09:34;;;;;;;66.70;24.33;;;3.40;99.90;;;;;;5079456;28;20051;-74
2022/01/16 06:12:00;;;;;;;63.67;24.90;;;3.60;99.90;;;;;;5096052;28;20486;-74
2022/01/16 06:14:26;;;;;;;65.22;24.35;;;3.70;99.90;;;;;;5062126;28;20055;-74
2022/01/16 06:16:52;;;;;;;66.93;23.35;;;3.60;99.90;;;;;;5113948;28;20058;-74
2022/01/16 06:19:19;;;;;;;68.97;23.65;;;3.50;99.90;;;;;;5112884;28;20119;-74
2022/01/16 06:21:46;;;;;;;70.22;26.38;;;4.20;99.90;;;;;;5079307;28;20136;-74
2022/01/16 06:24:12;;;;;;;62.95;24.83;;;3.60;99.90;;;;;;5096006;28;20047;-74
2022/01/16 06:26:38;;;;;;;67.50;25.10;;;4.00;99.90;;;;;;5095975;28;20052;-74
2022/01/16 06:29:04;;;;;;;73.50;26.13;;;3.70;99.90;;;;;;5079169;28;20050;-74
2022/01/16 06:31:29;;;;;;;74.00;26.00;;;4.00;99.90;;;;;;5114211;28;20103;-74
2022/01/16 06:33:55;;;;;;;63.08;24.10;;;3.80;99.90;;;;;;5079102;28;20131;-74
2022/01/16 06:36:21;;;;;;;65.88;24.52;;;3.90;99.90;;;;;;5095895;28;20040;-74
2022/01/16 06:38:47;;;;;;;62.78;24.00;;;3.70;99.90;;;;;;5112497;28;20089;-74
2022/01/16 06:41:13;;;;;;;65.28;25.23;;;4.60;99.90;;;;;;5095815;28;20035;-74
2022/01/16 06:43:38;;;;;;;72.45;26.52;;;3.80;99.90;;;;;;5112404;28;20062;-74
2022/01/16 06:46:04;;;;;;;68.07;25.45;;;4.70;99.90;;;;;;5082073;28;20086;-74
2022/01/16 06:48:31;;;;;;;70.75;25.55;;;4.80;99.90;;;;;;5099846;28;20044;-74
2022/01/16 06:50:57;;;;;;;64.20;27.58;;;3.50;99.90;;;;;;5099815;28;20047;-74
2022/01/16 06:53:22;;;;;;;70.15;27.30;;;4.00;99.90;;;;;;5116691;28;20499;-74
2022/01/16 06:55:48;;;;;;;68.30;27.48;;;4.30;99.90;;;;;;5116461;28;20043;-75
2022/01/16 06:58:14;;;;;;;68.40;28.15;;;4.80;99.90;;;;;;5082910;28;20412;-74
2022/01/16 07:00:39;;;;;;;62.38;24.98;;;4.50;99.90;;;;;;5116749;28;20176;-74
2022/01/16 07:03:05;;;;;;;65.78;24.10;;;4.20;99.90;;;;;;5082563;28;20043;-74
2022/01/16 07:05:31;;;;;;;60.38;24.55;;;4.70;99.90;;;;;;5082782;28;20047;-74
2022/01/16 07:07:56;;;;;;;59.47;23.05;;;3.90;99.90;;;;;;5099640;28;20056;-74
2022/01/16 07:10:23;;;;;;;60.58;24.55;;;4.20;99.90;;;;;;5065470;28;20134;-74
2022/01/16 07:12:49;;;;;;;61.92;23.42;;;3.90;99.90;;;;;;5116189;28;20052;-74
2022/01/16 07:15:16;;;;;;;66.50;24.05;;;4.70;99.90;;;;;;5116263;28;20051;-74
2022/01/16 07:17:42;;;;;;;53.53;23.95;;;4.50;99.90;;;;;;5100294;28;20167;-74
2022/01/16 07:20:08;;;;;;;62.33;24.40;;;4.40;99.90;;;;;;5099056;28;20043;-75
2022/01/16 07:22:34;;;;;;;63.83;24.60;;;4.00;99.90;;;;;;5099169;28;20483;-75
2022/01/16 07:25:00;;;;;;;62.55;24.65;;;4.10;99.90;;;;;;5082449;28;20059;-74
2022/01/16 07:27:25;;;;;;;63.97;24.98;;;4.50;99.90;;;;;;5115660;28;20035;-75
2022/01/16 07:29:51;;;;;;;60.17;24.35;;;5.10;99.90;;;;;;5082234;28;20103;-74
2022/01/16 07:32:17;;;;;;;62.00;24.23;;;4.10;99.90;;;;;;5099127;28;20054;-74
2022/01/16 07:34:43;;;;;;;61.05;23.40;;;4.20;99.90;;;;;;5117669;28;20047;-74
2022/01/16 07:37:09;;;;;;;54.08;24.30;;;4.60;99.90;;;;;;5099380;28;20044;-74
2022/01/16 07:39:37;;;;;;;66.85;25.27;;;4.50;99.90;;;;;;5098563;28;20075;-75
2022/01/16 07:42:03;;;;;;;58.83;25.33;;;5.20;99.90;;;;;;5099029;28;20044;-75
2022/01/16 07:44:29;;;;;;;57.80;25.25;;;4.10;99.90;;;;;;5116214;28;20047;-74
2022/01/16 07:46:55;;;;;;;62.58;24.00;;;4.30;99.90;;;;;;5098911;28;20180;-75
2022/01/16 07:49:21;;;;;;;69.40;27.23;;;4.70;99.90;;;;;;5115738;28;20048;-74
2022/01/16 07:51:46;;;;;;;64.10;24.77;;;4.60;99.90;;;;;;5065801;28;20051;-74
2022/01/16 07:54:12;;;;;;;60.17;25.90;;;4.20;99.90;;;;;;5082302;28;20050;-75
2022/01/16 07:56:38;;;;;;;63.00;26.38;;;4.30;99.90;;;;;;5097218;28;20139;-75
2022/01/16 07:59:03;;;;;;;60.25;24.63;;;4.70;99.90;;;;;;5116540;28;20126;-74
2022/01/16 08:01:29;;;;;;;65.20;26.35;;;4.30;99.90;;;;;;5098687;28;20144;-74
2022/01/16 08:03:55;;;;;;;62.08;25.27;;;4.30;99.90;;;;;;5116443;28;20145;-74
2022/01/16 08:06:21;;;;;;;60.63;24.45;;;4.30;99.90;;;;;;5081714;28;20463;-75
2022/01/16 08:08:46;;;;;;;61.08;24.40;;;4.50;99.90;;;;;;5114846;28;20124;-74
2022/01/16 08:11:12;;;;;;;57.83;23.42;;;4.60;99.90;;;;;;5081499;28;20386;-75
2022/01/16 08:13:38;;;;;;;61.47;25.25;;;4.80;99.90;;;;;;5119752;27;20059;-74
2022/01/16 08:16:05;;;;;;;62.03;24.23;;;4.30;99.90;;;;;;5118730;27;20449;-74
2022/01/16 08:18:31;;;;;;;60.72;24.80;;;4.40;99.90;;;;;;5101442;27;20051;-74
2022/01/16 08:20:57;;;;;;;60.88;24.23;;;4.40;99.90;;;;;;5137263;27;20039;-75
2022/01/16 08:23:24;;;;;;;62.30;25.10;;;4.60;99.90;;;;;;5102150;27;20046;-74
2022/01/16 08:25:51;;;;;;;61.25;25.25;;;4.60;99.90;;;;;;5101614;27;20047;-75
2022/01/16 08:28:17;;;;;;;59.42;24.77;;;5.00;99.90;;;;;;5136356;27;20085;-75
2022/01/16 08:30:43;;;;;;;56.78;24.27;;;4.40;99.90;;;;;;5101287;27;20043;-74
2022/01/16 08:33:09;;;;;;;53.53;24.23;;;4.70;99.90;;;;;;5101323;27;20054;-73
2022/01/16 08:35:34;;;;;;;60.13;25.88;;;4.60;99.90;;;;;;5117989;27;20111;-72
2022/01/16 08:38:00;;;;;;;59.42;24.73;;;4.80;99.90;;;;;;5084190;27;20143;-72
2022/01/16 08:40:26;;;;;;;67.95;26.38;;;4.60;99.90;;;;;;5118169;27;20487;-73
2022/01/16 08:42:52;;;;;;;56.97;25.52;;;4.90;99.90;;;;;;5117994;27;20046;-72
2022/01/16 08:45:17;;;;;;;59.88;25.20;;;4.90;99.90;;;;;;5118693;27;20049;-72
2022/01/16 08:47:44;;;;;;;63.30;25.27;;;5.50;99.90;;;;;;5117970;27;20040;-72
2022/01/16 08:50:11;;;;;;;55.80;25.65;;;4.70;99.90;;;;;;5136101;27;20047;-73
2022/01/16 08:52:38;;;;;;;54.80;24.17;;;5.00;99.90;;;;;;5135981;27;20046;-72
2022/01/16 08:55:06;;;;;;;58.92;24.95;;;5.10;99.90;;;;;;5118122;27;20429;-72
2022/01/16 08:57:32;;;;;;;53.00;25.05;;;4.90;99.90;;;;;;5117621;27;20083;-73
2022/01/16 08:59:58;;;;;;;60.72;25.33;;;4.90;99.90;;;;;;5117440;27;20510;-72
2022/01/16 09:02:24;;;;;;;57.70;24.17;;;5.30;99.90;;;;;;5117858;27;20053;-75
2022/01/16 09:04:50;;;;;;;50.70;23.70;;;4.90;99.90;;;;;;5100745;27;20078;-75
2022/01/16 09:07:17;;;;;;;52.13;23.30;;;5.10;99.90;;;;;;5117651;27;20151;-74
2022/01/16 09:09:43;;;;;;;54.17;23.60;;;5.80;99.90;;;;;;5067329;27;20049;-75
2022/01/16 09:12:10;;;;;;;47.85;23.00;;;4.90;99.90;;;;;;5117537;27;20054;-74
2022/01/16 09:14:35;;;;;;;51.53;23.30;;;4.90;99.90;;;;;;5113442;28;20091;-75
2022/01/16 09:17:01;;;;;;;53.95;24.77;;;5.00;99.90;;;;;;5063638;28;20090;-74
2022/01/16 09:19:27;;;;;;;46.30;23.15;;;5.00;99.90;;;;;;5081011;28;20046;-74
2022/01/16 09:21:53;;;;;;;45.97;23.00;;;5.00;99.90;;;;;;5097776;28;20130;-74
2022/01/16 09:24:18;;;;;;;50.50;23.63;;;5.10;99.90;;;;;;5096863;28;20043;-74
2022/01/16 09:26:44;;;;;;;49.13;22.38;;;5.40;99.90;;;;;;5080808;28;20074;-75
2022/01/16 09:29:10;;;;;;;50.22;22.83;;;5.20;99.90;;;;;;5096714;28;20054;-71
2022/01/16 09:31:36;;;;;;;51.95;22.35;;;5.20;99.90;;;;;;5113241;28;20096;-71
2022/01/16 09:34:02;;;;;;;48.78;22.65;;;5.40;99.90;;;;;;5097178;28;20044;-75
2022/01/16 09:36:27;;;;;;;47.88;22.58;;;5.50;99.90;;;;;;5096449;28;20043;-76
2022/01/16 09:38:53;;;;;;;43.78;20.98;;;5.40;99.90;;;;;;5079108;28;20051;-75
2022/01/16 09:41:21;;;;;;;42.78;21.67;;;5.50;99.90;;;;;;5113321;28;20043;-75
2022/01/16 09:43:47;;;;;;;40.13;21.58;;;5.60;99.90;;;;;;5112905;28;20047;-75
2022/01/16 09:46:13;;;;;;;42.38;21.55;;;5.50;99.90;;;;;;5079740;28;20131;-75
2022/01/16 09:48:39;;;;;;;41.67;20.95;;;5.70;99.90;;;;;;5113880;28;20440;-74
2022/01/16 09:51:06;;;;;;;39.28;19.52;;;6.00;99.90;;;;;;5079354;28;20364;-75
2022/01/16 09:53:32;;;;;;;41.88;21.08;;;5.90;99.90;;;;;;5113310;28;20063;-75
2022/01/16 09:55:58;;;;;;;38.78;18.60;;;6.00;99.90;;;;;;5112753;28;20066;-75
2022/01/16 09:58:23;;;;;;;38.70;20.67;;;5.80;99.90;;;;;;5079383;28;20086;-74
2022/01/16 10:00:51;;;;;;;38.35;19.80;;;5.90;99.90;;;;;;5062196;28;20043;-75
2022/01/16 10:03:38;;;;;;;34.85;18.20;;;6.10;99.90;;;;;;5095766;28;20044;-75
2022/01/16 10:06:14;;;;;;;33.63;18.23;;;6.00;99.90;;;;;;5096789;28;20112;-75
2022/01/16 10:08:41;;;;;;;35.35;18.40;;;6.10;99.90;;;;;;5112530;28;20051;-75
2022/01/16 10:11:19;;;;;;;32.28;17.55;;;6.30;99.90;;;;;;5096548;28;20107;-76
2022/01/16 10:13:58;;;;;;;36.17;19.05;;;6.10;99.90;;;;;;5097808;28;20506;-77
2022/01/16 10:16:29;;;;;;;35.35;18.05;;;6.40;99.90;;;;;;5099206;28;20493;-77
2022/01/16 10:18:56;;;;;;;36.30;18.95;;;6.60;99.90;;;;;;5098665;27;20043;-76
2022/01/16 10:21:37;;;;;;;33.03;18.15;;;6.00;99.90;;;;;;5098527;28;20062;-75
2022/01/16 10:24:34;;;;;;;36.67;18.95;;;6.20;99.90;;;;;;5134729;28;20079;-76
2022/01/16 10:27:09;;;;;;;32.00;17.27;;;6.30;99.90;;;;;;5099658;28;20058;-74
2022/01/16 10:29:38;;;;;;;40.42;18.80;;;6.00;99.90;;;;;;5116761;28;20371;-74
2022/01/16 10:32:22;;;;;;;37.33;18.88;;;6.30;99.90;;;;;;5098789;28;20054;-72
2022/01/16 10:34:53;;;;;;;37.13;20.27;;;6.20;99.90;;;;;;5099907;28;20395;-74
2022/01/16 10:37:29;;;;;;;31.85;18.52;;;6.10;99.90;;;;;;5134596;28;20111;-74
2022/01/16 10:40:02;;;;;;;37.88;19.08;;;6.30;99.90;;;;;;5098771;28;20051;-73
2022/01/16 10:42:29;;;;;;;;;;;6.20;99.90;;;;;;5098946;28;20047;-72
2022/01/16 10:44:57;;;;;;;35.15;18.70;;;6.10;99.90;;;;;;5115737;28;19972;-73
2022/01/16 10:47:35;;;;;;;36.85;18.85;;;6.20;99.90;;;;;;5098930;28;20047;-73
2022/01/16 10:50:08;;;;;;;34.47;19.88;;;6.10;99.90;;;;;;5099194;28;20047;-73
2022/01/16 10:52:45;;;;;;;;;;;6.10;99.90;;;;;;5117050;28;20047;-73
2022/01/16 10:55:10;;;;;;;32.60;16.92;;;6.40;99.90;;;;;;5099633;28;19923;-75
2022/01/16 10:57:37;;;;;;;32.60;18.10;;;6.50;99.90;;;;;;5133455;28;20488;-73
2022/01/16 11:00:12;;;;;;;32.65;17.45;;;6.30;99.90;;;;;;5116588;28;20042;-73
2022/01/16 11:02:39;;;;;;;33.38;17.02;;;6.20;99.90;;;;;;5115581;28;20080;-74
2022/01/16 11:05:10;;;;;;;31.05;17.80;;;6.30;99.90;;;;;;5099608;28;20409;-74
2022/01/16 11:07:37;;;;;;;33.33;17.30;;;6.30;99.90;;;;;;5115712;28;20487;-73
2022/01/16 11:10:21;;;;;;;31.20;18.00;;;6.40;99.90;;;;;;5098810;28;20055;-75
2022/01/16 11:12:49;;;;;;;29.20;16.50;;;6.70;99.90;;;;;;5098643;28;20039;-73
2022/01/16 11:15:15;;;;;;;28.65;17.27;;;6.70;99.90;;;;;;5115413;28;20402;-73
2022/01/16 11:17:41;;;;;;;30.02;17.60;;;6.40;99.90;;;;;;5115686;28;20107;-76
2022/01/16 11:20:08;;;;;;;27.02;16.98;;;6.60;99.90;;;;;;5098918;28;20401;-76
2022/01/16 11:22:55;;;;;;;33.35;16.58;;;6.60;99.90;;;;;;5115474;28;20039;-76
2022/01/16 11:25:30;;;;;;;26.65;15.27;;;6.50;99.90;;;;;;5115701;28;20051;-76
2022/01/16 11:27:59;;;;;;;27.00;15.38;;;6.60;99.90;;;;;;5099263;28;20047;-78
2022/01/16 11:30:26;;;;;;;29.88;14.85;;;6.70;99.90;;;;;;5119711;27;20367;-76
2022/01/16 11:32:53;;;;;;;29.08;15.07;;;7.00;99.90;;;;;;5120284;27;20043;-76
2022/01/16 11:35:19;;;;;;;27.35;14.60;;;6.60;99.90;;;;;;5119016;27;20046;-76
2022/01/16 11:37:45;;;;;;;26.75;14.77;;;6.60;99.90;;;;;;5102128;27;20051;-77
2022/01/16 11:40:45;;;;;;;26.52;14.45;;;6.50;99.90;;;;;;5085085;27;20047;-77
2022/01/16 11:43:12;;;;;;;24.48;14.48;;;6.60;99.90;;;;;;5119122;27;20179;-79
2022/01/16 11:46:13;;;;;;;26.85;13.98;;;6.70;99.90;;;;;;5137882;27;20051;-79
2022/01/16 11:48:46;;;;;;;27.20;13.23;;;6.70;99.90;;;;;;5101816;27;20047;-75
2022/01/16 11:51:31;;;;;;;27.13;14.18;;;6.70;99.90;;;;;;5101924;27;20096;-74
2022/01/16 11:54:10;;;;;;;20.52;13.10;;;6.90;99.90;;;;;;5118615;27;20527;-75
2022/01/16 11:56:42;;;;;;;24.55;13.25;;;6.70;99.90;;;;;;5118396;27;20111;-75
2022/01/16 11:59:37;;;;;;;24.05;13.25;;;6.80;99.90;;;;;;5118729;27;20051;-75
2022/01/16 12:02:07;;;;;;;21.90;12.60;;;6.70;99.90;;;;;;5118780;27;20047;-75
2022/01/16 12:04:32;;;;;;;26.27;14.85;;;6.80;99.90;;;;;;5119257;27;20137;-74
2022/01/16 12:07:06;;;;;;;23.48;12.48;;;6.90;99.90;;;;;;5101304;27;20559;-74
2022/01/16 12:12:23;;;;;;;21.05;11.75;;;6.70;99.90;;;;;;5118973;27;20043;-74
2022/01/16 12:15:02;;;;;;;19.60;10.90;;;6.70;99.90;;;;;;5117411;27;20069;-75
2022/01/16 12:17:28;;;;;;;18.90;11.38;;;6.90;99.90;;;;;;5101514;27;20047;-75
2022/01/16 12:19:59;;;;;;;17.88;11.02;;;7.20;99.90;;;;;;5118092;27;20562;-74
2022/01/16 12:22:55;;;;;;;17.85;10.57;;;6.90;99.90;;;;;;5101243;27;20039;-74
2022/01/16 12:25:24;;;;;;;18.45;10.75;;;6.90;99.90;;;;;;5118504;27;20043;-75
2022/01/16 12:28:02;;;;;;;18.77;10.23;;;6.80;99.90;;;;;;5117653;27;20076;-75
2022/01/16 12:30:35;;;;;;;18.40;10.20;;;6.90;99.90;;;;;;5118327;27;20078;-74
2022/01/16 12:33:03;;;;;;;16.48;9.48;;;7.10;99.90;;;;;;5101276;27;20082;-74
2022/01/16 12:35:41;;;;;;;21.05;10.13;;;7.60;99.90;;;;;;5118735;27;20049;-74
2022/01/16 12:38:30;;;;;;;20.35;9.40;;;6.80;99.90;;;;;;5135692;27;20539;-74
2022/01/16 12:41:24;;;;;;;19.33;8.65;;;6.90;99.90;;;;;;5100644;27;20047;-74
2022/01/16 12:43:59;;;;;;;16.33;9.38;;;6.80;99.90;;;;;;5116650;27;20043;-74
2022/01/16 12:46:30;;;;;;;17.42;8.45;;;6.80;99.90;;;;;;5118430;27;20151;-75
2022/01/16 12:48:58;;;;;;;14.90;9.02;;;7.20;99.90;;;;;;5117420;27;20153;-74
2022/01/16 12:51:27;;;;;;;15.35;7.63;;;7.10;99.90;;;;;;5117560;27;20474;-74
2022/01/16 12:54:03;;;;;;;18.15;7.50;;;7.00;99.90;;;;;;5117459;27;20051;-76
2022/01/16 12:56:47;;;;;;;16.48;8.25;;;7.00;99.90;;;;;;5117644;27;20090;-81
2022/01/16 12:59:17;;;;;;;15.43;8.23;;;6.30;99.90;;;;;;5100758;27;20047;-76
2022/01/16 13:01:58;;;;;;;17.15;6.88;;;7.10;99.90;;;;;;5099645;27;20043;-79
2022/01/16 13:04:28;;;;;;;15.57;7.50;;;7.00;99.90;;;;;;5100519;27;20051;-80
2022/01/16 13:07:09;;;;;;;16.08;6.68;;;7.30;99.90;;;;;;5099860;27;20047;-81
2022/01/16 13:09:35;;;;;;;13.52;6.00;;;7.20;99.90;;;;;;5099819;27;20047;-78
2022/01/16 13:12:03;;;;;;;13.32;6.00;;;6.90;99.90;;;;;;5116601;27;20043;-79
2022/01/16 13:14:34;;;;;;;13.40;5.85;;;6.80;99.90;;;;;;5115558;27;20463;-80
2022/01/16 13:17:08;;;;;;;10.20;5.80;;;7.20;99.90;;;;;;5100082;27;20047;-78
2022/01/16 13:19:52;;;;;;;10.20;6.47;;;7.10;99.90;;;;;;5084434;27;20086;-78
2022/01/16 13:22:30;;;;;;;11.05;5.50;;;6.90;99.90;;;;;;5100135;27;20049;-78
2022/01/16 13:25:07;;;;;;;12.02;5.65;;;7.60;99.90;;;;;;5134492;27;20498;-79
2022/01/16 13:27:34;;;;;;;11.27;6.07;;;7.10;99.90;;;;;;5099929;27;20039;-80
2022/01/16 13:30:27;;;;;;;10.90;5.60;;;7.10;99.90;;;;;;5116556;27;20182;-79
2022/01/16 13:33:02;;;;;;;10.60;5.32;;;7.00;99.90;;;;;;5099522;27;20051;-79
2022/01/16 13:35:30;;;;;;;12.35;5.60;;;7.00;99.90;;;;;;5116650;27;20043;-79